Terminal Aerodrome Forecast
Issued by NWS Cleveland, OH

Home | Current Version | Previous Version | Text Only | Print | Product List | Glossary Off
Versions: 1 2 3 4 5 6 7 8 9 10 11 12 13 14 15

000
FTUS41 KCLE 280300 AAA
TAFERI
TAF AMD
KERI 280330Z 2804/2824 36009G16KT P6SM SCT250
     FM280800 34006KT P6SM SCT250
     FM281500 33008KT P6SM SCT250=

USA.gov is the U.S. government's official web portal to all federal, state and local government web resources and services.